Decoded Metar for KLOR (LOWE AHP/FT. RUC in AL, USA) (IATA:LOR) | Meteo·Mobile Aviation Weather
aviador You're here:

KLOR Decoded Metar

LOWE AHP/FT. RUC in AL, USA
Report Time2018-11-19 09:58:00
UTC Time2018-11-19 10:10:24
Flight Rules vfr VFR
WindCalm
Visibility9999 m
Phenomena:N/A
Clouds:N/A
CeilingNone
Temp05°C (ISA -10)
Dew Point05°C (100% RH)
AAT3.9°C
QNH1021 hPa
Density Alt-1,060 ft
Elevation243 ft
Report Wrong Elevation
Raw Report
KLOR 190958Z AUTO 00000KT 10SM CLR 05/05 A3015 RMK AO2 SLP193
T00500050=

Extra information for KLOR:More info

Metar Taf Metar & Taf Last 4 Metars F.Rules Stats Wind Profile Meteogram Temp Stats Airport Information Weather charts Add Link Nearby VenuesMetar ALERT Operation Metar Decoded Social comments

AIRNAV info for KLOR